Pagrindinis puslapis
METAR-TAF:

METAR-TAF

Oro uostai :

Pekino tarptautinis oro uostas

Pekinas, Kinija

platuma: 39-56N, ilguma: 116-17E, Aukštis: 55 m

Dabartinis oras

Ataskaita buvo paskelbta 36 minutes, ne 14:00 UTC
Vėjas 4 kt iš Pietų/Pietryčių
Temperatūra 22°C
Drėgmė 50%
Slėgis 1009 hPa
Matomumas 10 km arba daugiau
nėra debesų žemiau 1500 m ir nėra kamuolinių lietaus debesų

METAR: ZBAA 051400Z 15002MPS CAVOK 22/11 Q1009 NOSIG

Laikas: 22:36 (14:36 UTC)

Prognozė

Ataskaita buvo paskelbta 5 valandos ir 34 minutes, ne 09:02 UTC
Prognozė galioja nuo 05 metu 12 UTC su 06 metu 12 UTC
Vėjas 8 kt iš Pietų
Matomumas 10 km arba daugiau
nėra debesų žemiau 1500 m ir nėra kamuolinių lietaus debesų

TAF: ZBAA 050902Z 0512/0612 17004MPS CAVOK TX33/0607Z TN18/0521Z

Orai ataskaitas ir orų prognozės (METAR, TAF).

turimą stotys yra geltonos ir raudonos taškus žemėlapyje.

Perkelti pele per norėdami pamatyti stoties vardą.

Tada spustelėkite, norėdami matyti oro stebėjimo ir prognozės.

Norėdami pakeisti žemėlapį: spustelėkite ant žalios mygtukų su juodo kryžiaus žemyn,; žalią mygtuką su brūkšneliu, jei norite nutolinti; arba žalių rodyklių gretimoms žemėlapius.


METAR-TAF: